Impacts TAF Board INFO
FOR SITUATIONAL AWARENESS. NOT TO BE USED FOR FLIGHT PLANNING PURPOSES.
IDs:

KPDX - Portland Intl Arpt, OR, US

Issued at 0252 UTC 20 Jan 2018
Updated at 0521 UTC 20 Jan 2018
Potential Impact None Slight Moderate High
Time0453Z 20/06Z 20/07Z 20/08Z 20/09Z 20/10Z 20/11Z 20/12Z 20/13Z 20/14Z 20/15Z 20/16Z 20/17Z 20/18Z>>
Type OBS PRVL PRVL PRVL PRVL PRVL PRVL PRVL PRVL PRVL PRVL PRVL PRVL PRVL
VIS 10 >6 >6 >6 >6 >6 >6 >6 >6 >6 >6 >6 >6 >6
CIG 46 60 60 60 60 45 45 45 45 45 25 25 25 25
Cover OVC OVC OVC OVC OVC OVC OVC OVC OVC OVC BKN BKN BKN BKN
FltCat VFR VFR VFR VFR VFR VFR VFR VFR VFR VFR MVFR MVFR MVFR MVFR
WX -RA -SHRA -SHRA -SHRA -SHRA -SHRA -SHRA -SHRA -SHRA -SHRA VCSH VCSH VCSH VCSH
WDir 200 180 180 180 180 190 190 190 190 190 160 160 160 160
WSpd 12 8 8 8 8 5 5 5 5 5 7 7 7 7
WGst 20 -- -- -- -- -- -- -- -- -- -- -- -- --

Raw TAF
KPDX 200252Z 2003/2024 18008KT P6SM -SHRA SCT035 BKN060 OVC100
  FM201000 19005KT P6SM -SHRA SCT025 OVC045
  FM201500 16007KT P6SM VCSH BKN025
  FM202200 17012KT P6SM -RA OVC050


Raw METAR
KPDX 200453Z 20012G20KT 10SM -RA FEW035 OVC046 07/04 A3003 RMK AO2 SLP169 P0001 T00720039
KPDX 200353Z 20013KT 10SM -RA BKN055 OVC070 08/04 A3001 RMK AO2 SLP163 P0000 T00780044
KPDX 200253Z 18010G17KT 10SM -RA FEW045 BKN060 OVC095 08/04 A3001 RMK AO2 RAB48 SLP162 P0000 60000 T00780039 53002

METAR Board
Radar Display
Forecast Discussion

FOR SITUATIONAL AWARENESS. NOT TO BE USED FOR FLIGHT PLANNING PURPOSES.